Time,TemperatureF,DewpointF,PressureIn,WindDirection,WindDirectionDegrees,WindSpeedMPH,WindSpeedGustMPH,Humidity,HourlyPrecipIn,Conditions,Clouds,dailyrainin,SolarRadiationWatts/m^2,SoftwareType,DateUTC
2013-05-24 00:03:00,48.2,43.0,30.17,West,259,0.0,6.0,83,0.00,,,0.02,0,weatherlink.com 1.10,2013-05-24 04:03:00,
2013-05-24 00:17:00,47.9,43.0,30.17,SSE,150,0.0,6.0,82,0.00,,,0.02,0,weatherlink.com 1.10,2013-05-24 04:17:00,
2013-05-24 00:32:00,47.1,41.0,30.18,NW,309,0.0,5.0,80,0.00,,,0.02,0,weatherlink.com 1.10,2013-05-24 04:32:00,
2013-05-24 00:47:00,46.2,41.0,30.18,SW,232,0.0,6.0,81,0.00,,,0.02,0,weatherlink.com 1.10,2013-05-24 04:47:00,
2013-05-24 01:03:00,45.5,40.0,30.18,WNW,294,0.0,1.0,82,0.00,,,0.02,0,weatherlink.com 1.10,2013-05-24 05:03:00,
2013-05-24 01:18:00,44.6,40.0,30.19,North,355,2.0,4.0,83,0.00,,,0.02,0,weatherlink.com 1.10,2013-05-24 05:18:00,
2013-05-24 01:33:00,44.0,40.0,30.20,ENE,72,0.0,2.0,84,0.00,,,0.02,0,weatherlink.com 1.10,2013-05-24 05:33:00,
2013-05-24 01:48:00,43.4,39.0,30.20,ENE,72,0.0,0.0,85,0.00,,,0.02,0,weatherlink.com 1.10,2013-05-24 05:48:00,
2013-05-24 02:03:00,42.9,39.0,30.20,WSW,246,0.0,2.0,85,0.00,,,0.02,0,weatherlink.com 1.10,2013-05-24 06:03:00,
2013-05-24 02:18:00,42.4,38.0,30.21,WSW,246,0.0,2.0,85,0.00,,,0.02,0,weatherlink.com 1.10,2013-05-24 06:18:00,
2013-05-24 02:33:00,41.9,38.0,30.21,WSW,246,0.0,0.0,85,0.00,,,0.02,0,weatherlink.com 1.10,2013-05-24 06:33:00,
2013-05-24 02:48:00,41.6,37.0,30.21,NW,311,0.0,6.0,84,0.00,,,0.02,0,weatherlink.com 1.10,2013-05-24 06:48:00,
2013-05-24 03:03:00,41.4,37.0,30.21,WNW,294,0.0,2.0,84,0.00,,,0.02,0,weatherlink.com 1.10,2013-05-24 07:03:00,
2013-05-24 03:18:00,40.9,36.0,30.22,WNW,294,0.0,1.0,84,0.00,,,0.02,0,weatherlink.com 1.10,2013-05-24 07:18:00,
2013-05-24 03:33:00,40.6,37.0,30.23,NNE,26,0.0,4.0,85,0.00,,,0.02,0,weatherlink.com 1.10,2013-05-24 07:33:00,
2013-05-24 03:48:00,40.4,37.0,30.23,North,10,0.0,2.0,86,0.00,,,0.02,0,weatherlink.com 1.10,2013-05-24 07:48:00,
2013-05-24 04:03:00,40.2,37.0,30.23,East,82,0.0,2.0,87,0.00,,,0.02,0,weatherlink.com 1.10,2013-05-24 08:03:00,
2013-05-24 04:18:00,41.0,38.0,30.24,South,184,1.0,4.0,90,0.00,,,0.02,0,weatherlink.com 1.10,2013-05-24 08:18:00,
2013-05-24 04:33:00,41.8,39.0,30.24,NNW,327,0.0,4.0,90,0.00,,,0.02,0,weatherlink.com 1.10,2013-05-24 08:33:00,
2013-05-24 04:48:00,42.4,40.0,30.25,ENE,64,0.0,1.0,90,0.00,,,0.02,0,weatherlink.com 1.10,2013-05-24 08:48:00,
2013-05-24 05:03:00,42.6,40.0,30.25,WNW,294,0.0,1.0,90,0.00,,,0.02,0,weatherlink.com 1.10,2013-05-24 09:03:00,
2013-05-24 05:18:00,42.9,41.0,30.25,WNW,294,0.0,1.0,91,0.00,,,0.02,0,weatherlink.com 1.10,2013-05-24 09:18:00,
2013-05-24 05:33:00,42.9,40.0,30.25,WNW,294,0.0,0.0,90,0.00,,,0.02,0,weatherlink.com 1.10,2013-05-24 09:33:00,
2013-05-24 05:48:00,42.6,40.0,30.26,WNW,294,0.0,0.0,90,0.00,,,0.02,0,weatherlink.com 1.10,2013-05-24 09:48:00,
2013-05-24 06:03:00,41.9,39.0,30.26,WNW,294,0.0,0.0,90,0.00,,,0.02,0,weatherlink.com 1.10,2013-05-24 10:03:00,
2013-05-24 06:18:00,41.2,39.0,30.27,WNW,294,0.0,0.0,90,0.00,,,0.02,0,weatherlink.com 1.10,2013-05-24 10:18:00,
2013-05-24 06:33:00,40.9,39.0,30.27,WNW,294,0.0,0.0,91,0.00,,,0.02,5,weatherlink.com 1.10,2013-05-24 10:33:00,
2013-05-24 06:48:00,41.0,39.0,30.28,WNW,294,0.0,1.0,92,0.00,,,0.02,12,weatherlink.com 1.10,2013-05-24 10:48:00,
2013-05-24 07:03:00,41.1,39.0,30.29,WNW,294,0.0,0.0,93,0.00,,,0.02,19,weatherlink.com 1.10,2013-05-24 11:03:00,
2013-05-24 07:18:00,41.3,40.0,30.30,NNW,338,0.0,2.0,93,0.00,,,0.02,26,weatherlink.com 1.10,2013-05-24 11:18:00,
2013-05-24 07:33:00,41.5,40.0,30.31,NE,34,0.0,5.0,93,0.00,,,0.02,51,weatherlink.com 1.10,2013-05-24 11:33:00,
2013-05-24 07:48:00,41.7,40.0,30.31,NE,45,3.0,4.0,93,0.00,,,0.02,49,weatherlink.com 1.10,2013-05-24 11:48:00,
2013-05-24 08:04:00,42.1,40.0,30.32,NNE,21,0.0,4.0,93,0.00,,,0.02,100,weatherlink.com 1.10,2013-05-24 12:04:00,
2013-05-24 08:18:00,43.0,41.0,30.32,ENE,60,1.0,6.0,93,0.00,,,0.02,139,weatherlink.com 1.10,2013-05-24 12:18:00,
2013-05-24 08:33:00,43.6,41.0,30.32,WSW,249,4.0,7.0,90,0.00,,,0.02,163,weatherlink.com 1.10,2013-05-24 12:33:00,
2013-05-24 08:49:00,44.1,41.0,30.33,SE,124,1.0,5.0,90,0.00,,,0.02,192,weatherlink.com 1.10,2013-05-24 12:49:00,
2013-05-24 09:04:00,44.7,42.0,30.34,SE,140,1.0,6.0,89,0.00,,,0.02,290,weatherlink.com 1.10,2013-05-24 13:04:00,
2013-05-24 09:19:00,45.9,42.0,30.35,ESE,114,0.0,4.0,86,0.00,,,0.02,265,weatherlink.com 1.10,2013-05-24 13:19:00,
2013-05-24 09:34:00,47.8,43.0,30.36,NW,304,4.0,5.0,83,0.00,,,0.02,566,weatherlink.com 1.10,2013-05-24 13:34:00,
2013-05-24 09:49:00,48.2,45.0,30.37,ESE,110,1.0,5.0,87,0.00,,,0.02,239,weatherlink.com 1.10,2013-05-24 13:49:00,
2013-05-24 10:04:00,47.9,43.0,30.37,NE,36,1.0,5.0,83,0.00,,,0.02,204,weatherlink.com 1.10,2013-05-24 14:04:00,
2013-05-24 10:19:00,50.0,44.0,30.38,NNW,338,1.0,4.0,81,0.00,,,0.02,345,weatherlink.com 1.10,2013-05-24 14:19:00,
2013-05-24 10:34:00,50.6,45.0,30.38,ENE,67,1.0,5.0,81,0.00,,,0.02,937,weatherlink.com 1.10,2013-05-24 14:34:00,
2013-05-24 10:49:00,52.0,45.0,30.37,NW,318,2.0,6.0,78,0.00,,,0.02,352,weatherlink.com 1.10,2013-05-24 14:49:00,
2013-05-24 11:04:00,52.9,46.0,30.38,ESE,116,2.0,7.0,77,0.00,,,0.02,937,weatherlink.com 1.10,2013-05-24 15:04:00,
2013-05-24 11:19:00,53.6,45.0,30.38,ESE,102,1.0,6.0,72,0.00,,,0.02,251,weatherlink.com 1.10,2013-05-24 15:19:00,
2013-05-24 11:34:00,53.2,45.0,30.38,NNE,12,2.0,5.0,73,0.00,,,0.02,956,weatherlink.com 1.10,2013-05-24 15:34:00,
2013-05-24 11:49:00,55.0,45.0,30.39,NW,321,0.0,6.0,68,0.00,,,0.02,963,weatherlink.com 1.10,2013-05-24 15:49:00,
2013-05-24 12:04:00,56.7,45.0,30.39,NE,44,0.0,5.0,66,0.00,,,0.02,1005,weatherlink.com 1.10,2013-05-24 16:04:00,
2013-05-24 12:19:00,57.5,45.0,30.38,SW,225,1.0,6.0,63,0.00,,,0.02,991,weatherlink.com 1.10,2013-05-24 16:19:00,
2013-05-24 12:34:00,57.8,46.0,30.38,ESE,117,2.0,6.0,65,0.00,,,0.02,998,weatherlink.com 1.10,2013-05-24 16:34:00,
2013-05-24 12:49:00,59.2,46.0,30.38,SE,126,1.0,6.0,61,0.00,,,0.02,1011,weatherlink.com 1.10,2013-05-24 16:49:00,
2013-05-24 13:04:00,60.2,44.0,30.38,ENE,63,2.0,5.0,56,0.00,,,0.02,995,weatherlink.com 1.10,2013-05-24 17:04:00,
2013-05-24 13:19:00,60.6,45.0,30.38,NNE,13,5.0,7.0,57,0.00,,,0.02,1027,weatherlink.com 1.10,2013-05-24 17:19:00,
2013-05-24 13:34:00,60.5,45.0,30.37,NNW,348,1.0,6.0,58,0.00,,,0.02,1027,weatherlink.com 1.10,2013-05-24 17:34:00,
2013-05-24 13:49:00,61.6,44.0,30.37,WNW,290,4.0,6.0,53,0.00,,,0.02,1023,weatherlink.com 1.10,2013-05-24 17:49:00,
2013-05-24 14:04:00,62.1,46.0,30.36,ENE,65,2.0,8.0,57,0.00,,,0.02,1030,weatherlink.com 1.10,2013-05-24 18:04:00,
2013-05-24 14:19:00,62.6,46.0,30.36,South,188,2.0,7.0,54,0.00,,,0.02,1025,weatherlink.com 1.10,2013-05-24 18:19:00,
2013-05-24 14:34:00,62.6,45.0,30.36,North,5,0.0,7.0,53,0.00,,,0.00,1011,weatherlink.com 1.10,2013-05-24 18:34:00,
2013-05-24 14:49:00,63.4,45.0,30.36,North,355,1.0,9.0,51,0.00,,,0.00,998,weatherlink.com 1.10,2013-05-24 18:49:00,
2013-05-24 15:04:00,64.1,46.0,30.36,SSE,150,1.0,7.0,52,0.00,,,0.00,976,weatherlink.com 1.10,2013-05-24 19:04:00,
2013-05-24 15:19:00,65.1,42.0,30.36,ENE,65,4.0,6.0,44,0.00,,,0.00,960,weatherlink.com 1.10,2013-05-24 19:19:00,
2013-05-24 15:34:00,65.5,43.0,30.35,ENE,59,0.0,6.0,44,0.00,,,0.00,933,weatherlink.com 1.10,2013-05-24 19:34:00,
2013-05-24 15:49:00,65.7,45.0,30.35,WNW,282,1.0,6.0,47,0.00,,,0.00,905,weatherlink.com 1.10,2013-05-24 19:49:00,
2013-05-24 16:04:00,65.6,42.0,30.35,ENE,76,1.0,6.0,43,0.00,,,0.00,868,weatherlink.com 1.10,2013-05-24 20:04:00,
2013-05-24 16:19:00,65.9,40.0,30.35,NNW,330,1.0,7.0,39,0.00,,,0.00,842,weatherlink.com 1.10,2013-05-24 20:19:00,
2013-05-24 16:34:00,66.2,41.0,30.35,SSE,163,2.0,6.0,40,0.00,,,0.00,798,weatherlink.com 1.10,2013-05-24 20:34:00,
2013-05-24 16:49:00,66.2,40.0,30.34,NE,40,3.0,5.0,38,0.00,,,0.00,756,weatherlink.com 1.10,2013-05-24 20:49:00,
2013-05-24 17:04:00,66.8,43.0,30.33,NNW,338,0.0,6.0,42,0.00,,,0.00,717,weatherlink.com 1.10,2013-05-24 21:04:00,
2013-05-24 17:19:00,66.4,40.0,30.33,East,95,0.0,8.0,38,0.00,,,0.00,666,weatherlink.com 1.10,2013-05-24 21:19:00,
2013-05-24 17:35:00,67.1,43.0,30.32,NNW,340,0.0,4.0,42,0.00,,,0.00,619,weatherlink.com 1.10,2013-05-24 21:35:00,
2013-05-24 17:50:00,67.1,38.0,30.32,ENE,59,1.0,4.0,35,0.00,,,0.00,570,weatherlink.com 1.10,2013-05-24 21:50:00,
2013-05-24 18:05:00,66.5,42.0,30.32,NNE,23,2.0,4.0,41,0.00,,,0.00,522,weatherlink.com 1.10,2013-05-24 22:05:00,
2013-05-24 18:20:00,66.8,40.0,30.31,SE,144,1.0,4.0,38,0.00,,,0.00,464,weatherlink.com 1.10,2013-05-24 22:20:00,
2013-05-24 18:35:00,66.8,41.0,30.30,NNE,23,0.0,5.0,39,0.00,,,0.00,410,weatherlink.com 1.10,2013-05-24 22:35:00,
2013-05-24 18:50:00,66.7,39.0,30.29,SSE,157,1.0,6.0,37,0.00,,,0.00,357,weatherlink.com 1.10,2013-05-24 22:50:00,
2013-05-24 19:05:00,66.6,39.0,30.28,SSE,161,0.0,2.0,37,0.00,,,0.00,330,weatherlink.com 1.10,2013-05-24 23:05:00,
2013-05-24 19:20:00,66.3,40.0,30.29,SSE,161,0.0,1.0,39,0.00,,,0.00,276,weatherlink.com 1.10,2013-05-24 23:20:00,
2013-05-24 19:35:00,66.3,42.0,30.29,SSE,161,0.0,1.0,41,0.00,,,0.00,155,weatherlink.com 1.10,2013-05-24 23:35:00,
2013-05-24 19:50:00,64.6,41.0,30.29,SSE,161,0.0,1.0,43,0.00,,,0.00,47,weatherlink.com 1.10,2013-05-24 23:50:00,
2013-05-24 20:05:00,63.5,39.0,30.28,SSE,161,0.0,0.0,41,0.00,,,0.00,33,weatherlink.com 1.10,2013-05-25 00:05:00,
2013-05-24 20:20:00,61.6,40.0,30.27,SSE,161,0.0,0.0,46,0.00,,,0.00,23,weatherlink.com 1.10,2013-05-25 00:20:00,
2013-05-24 20:35:00,59.5,41.0,30.28,SSE,161,0.0,0.0,50,0.00,,,0.00,16,weatherlink.com 1.10,2013-05-25 00:35:00,
2013-05-24 20:50:00,57.7,39.0,30.28,SSE,161,0.0,0.0,50,0.00,,,0.00,9,weatherlink.com 1.10,2013-05-25 00:50:00,
2013-05-24 21:05:00,56.4,40.0,30.28,SSE,161,0.0,0.0,55,0.00,,,0.00,0,weatherlink.com 1.10,2013-05-25 01:05:00,
2013-05-24 21:20:00,55.3,41.0,30.29,SSE,161,0.0,0.0,58,0.00,,,0.00,0,weatherlink.com 1.10,2013-05-25 01:20:00,
2013-05-24 21:35:00,54.4,38.0,30.29,SSE,161,0.0,0.0,55,0.00,,,0.00,0,weatherlink.com 1.10,2013-05-25 01:35:00,
2013-05-24 21:50:00,54.1,39.0,30.30,SSE,161,0.0,0.0,58,0.00,,,0.00,0,weatherlink.com 1.10,2013-05-25 01:50:00,
2013-05-24 22:05:00,53.6,38.0,30.30,SSE,161,0.0,0.0,55,0.00,,,0.00,0,weatherlink.com 1.10,2013-05-25 02:05:00,
2013-05-24 22:20:00,52.8,39.0,30.30,SSE,161,0.0,0.0,61,0.00,,,0.00,0,weatherlink.com 1.10,2013-05-25 02:20:00,
2013-05-24 22:35:00,51.7,41.0,30.31,SSE,161,0.0,0.0,67,0.00,,,0.00,0,weatherlink.com 1.10,2013-05-25 02:35:00,
2013-05-24 22:50:00,50.9,42.0,30.32,SSE,161,0.0,0.0,72,0.00,,,0.00,0,weatherlink.com 1.10,2013-05-25 02:50:00,
2013-05-24 23:05:00,50.0,38.0,30.32,SSE,161,0.0,0.0,64,0.00,,,0.00,0,weatherlink.com 1.10,2013-05-25 03:05:00,
2013-05-24 23:20:00,49.6,39.0,30.32,SSE,161,0.0,0.0,66,0.00,,,0.00,0,weatherlink.com 1.10,2013-05-25 03:20:00,
2013-05-24 23:35:00,49.4,40.0,30.32,SSE,161,0.0,0.0,70,0.00,,,0.00,0,weatherlink.com 1.10,2013-05-25 03:35:00,
2013-05-24 23:50:00,49.5,39.0,30.33,SSE,161,0.0,0.0,67,0.00,,,0.00,0,weatherlink.com 1.10,2013-05-25 03:50:00,